Wind from 254 at 11 knots gusting 14

Air temperature 12.8° C
Dewpoint 11.3° C

Last reported at 2014-Apr-24 08:50 UTC.
Time now 2014-Apr-24 09:24 UTC

Location: N 39°14' W 009°18'.
View on Google Maps.

See reports from other nearby stations

Tides Stations Pressure Air Temp Water Temp Dewpoint Dewpoint depression Visibility Wind Speed Wind Dir Waves Ship positions

  
sailing weather and tide predictions

DW7126 Lourinha PT weather

date/time (UTC)wind fromknots sea level pressurealtimeterstation pressurevisibilityair tempwater tempwave heightnotes
2014-Apr-24 08:50 254 11 gusting 14 12.8
2014-Apr-24 08:45 235 10 gusting 17 12.8
2014-Apr-24 08:40 255 12 gusting 17 12.2
2014-Apr-24 08:35 271 12 gusting 17 12.2
2014-Apr-24 08:30 261 12 gusting 17 12.2
2014-Apr-24 08:25 259 10 gusting 18 11.7
2014-Apr-24 08:20 275 11 gusting 20 12.2
2014-Apr-24 08:15 257 13 gusting 23 12.8
2014-Apr-24 08:10 360 12 gusting 23 13.9
2014-Apr-24 08:05 360 16 gusting 22 15.0
2014-Apr-24 08:00 230 13 gusting 19 14.4
2014-Apr-24 07:55 244 12 gusting 19 14.4
2014-Apr-24 07:50 360 13 gusting 18 14.4
2014-Apr-24 07:45 257 13 gusting 19 13.9
2014-Apr-24 07:40 360 11 gusting 19 13.9
2014-Apr-24 07:35 360 13 gusting 19 14.4
2014-Apr-24 07:30 360 13 gusting 19 13.9
2014-Apr-24 07:25 256 6 gusting 12 13.9
2014-Apr-24 07:20 360 6 gusting 11 13.3
2014-Apr-24 07:15 360 6 gusting 13 13.3
2014-Apr-24 07:10 360 9 gusting 13 12.8
2014-Apr-24 07:05 360 11.7
2014-Apr-24 07:00 314 2 gusting 5 11.7
2014-Apr-24 06:55 335 0 gusting 6 12.2
2014-Apr-24 06:50 285 0 gusting 6 12.2
2014-Apr-24 06:45 279 2 gusting 7 12.2
2014-Apr-24 06:40 261 5 gusting 7 11.7
2014-Apr-24 06:35 272 3 gusting 6 11.1
2014-Apr-24 06:30 256 0 gusting 2 10.6
2014-Apr-24 06:25 236 10.0
2014-Apr-24 06:20 221 10.6
2014-Apr-24 06:15 222 0 gusting 3 10.6
2014-Apr-24 06:10 216 0 gusting 3 10.6
2014-Apr-24 06:05 213 0 gusting 5 10.6
2014-Apr-24 06:00 208 2 gusting 5 10.6
2014-Apr-24 05:55 199 2 gusting 5 10.6
2014-Apr-24 05:50 201 3 gusting 5 10.0
2014-Apr-24 05:45 217 0 gusting 2 10.0
2014-Apr-24 05:40 212 0 gusting 2 10.0
2014-Apr-24 05:35 212 9.4
2014-Apr-24 05:30 212 9.4
2014-Apr-24 05:25 212 9.4
2014-Apr-24 05:20 212 9.4
2014-Apr-24 05:15 212 9.4
2014-Apr-24 05:10 212 9.4
2014-Apr-24 05:05 212 9.4
2014-Apr-24 05:00 212 9.4
2014-Apr-24 04:55 212 9.4
2014-Apr-24 04:50 212 9.4
2014-Apr-24 04:45 212 9.4
2014-Apr-24 04:40 212 9.4
2014-Apr-24 04:35 212 9.4
2014-Apr-24 04:30 212 9.4
2014-Apr-24 04:25 212 0 gusting 3 9.4
2014-Apr-24 04:20 212 9.4
2014-Apr-24 04:15 212 3 gusting 4 9.4
2014-Apr-24 04:10 213 2 gusting 4 8.9
2014-Apr-24 04:05 216 0 gusting 2 9.4
2014-Apr-24 04:00 216 9.4
2014-Apr-24 03:55 216 9.4
2014-Apr-24 03:50 216 8.9
2014-Apr-24 03:45 216 8.9
2014-Apr-24 03:40 216 9.4
2014-Apr-24 03:35 216 2 gusting 4 9.4
2014-Apr-24 03:30 216 3 gusting 4 8.9
2014-Apr-24 03:25 304 8.9
2014-Apr-24 03:20 304 9.4
2014-Apr-24 03:15 304 9.4
2014-Apr-24 03:10 304 9.4
2014-Apr-24 03:05 304 9.4
2014-Apr-24 03:00 304 9.4
2014-Apr-24 02:55 304 9.4
2014-Apr-24 02:50 304 9.4
2014-Apr-24 02:45 304 9.4
2014-Apr-24 02:40 304 9.4
2014-Apr-24 02:35 304 8.9
2014-Apr-24 02:30 304 9.4
2014-Apr-24 02:25 304 9.4
2014-Apr-24 02:20 304 9.4
2014-Apr-24 02:15 304 9.4
2014-Apr-24 02:10 304 9.4
2014-Apr-24 02:05 304 9.4
2014-Apr-24 02:00 304 9.4
2014-Apr-24 01:55 304 9.4
2014-Apr-24 01:50 304 9.4
2014-Apr-24 01:45 304 9.4
2014-Apr-24 01:40 304 9.4
2014-Apr-24 01:35 304 9.4
2014-Apr-24 01:30 304 9.4
2014-Apr-24 01:25 304 9.4
2014-Apr-24 01:20 304 10.0
2014-Apr-24 01:15 304 10.0
2014-Apr-24 01:10 304 10.0
2014-Apr-24 01:05 304 10.0
2014-Apr-24 01:00 304 10.0
2014-Apr-24 00:55 304 0 gusting 1 10.6
2014-Apr-24 00:50 304 10.6
2014-Apr-24 00:45 304 0 gusting 1 10.0
2014-Apr-24 00:40 304 10.0
2014-Apr-24 00:35 304 10.0
2014-Apr-24 00:30 304 10.0
2014-Apr-24 00:25 304 10.6
2014-Apr-24 00:20 304 10.6
2014-Apr-24 00:15 304 10.6
2014-Apr-24 00:10 304 10.6
2014-Apr-24 00:05 304 11.1
2014-Apr-24 00:00 304 11.1
2014-Apr-23 23:55 304 11.1
2014-Apr-23 23:50 304 11.7
2014-Apr-23 23:45 304 11.7
2014-Apr-23 23:40 304 11.7
2014-Apr-23 23:35 304 12.2
2014-Apr-23 23:30 304 12.2
2014-Apr-23 23:25 304 12.2
2014-Apr-23 23:20 304 12.2
2014-Apr-23 23:15 304 12.2
2014-Apr-23 23:10 304 12.2
2014-Apr-23 23:05 304 12.2
2014-Apr-23 23:00 304 12.2
2014-Apr-23 22:55 304 12.2
2014-Apr-23 22:50 304 12.2
2014-Apr-23 22:45 304 12.8
2014-Apr-23 22:40 304 12.8
2014-Apr-23 22:35 304 12.8
2014-Apr-23 22:30 304 12.8
2014-Apr-23 22:25 304 12.8
2014-Apr-23 22:20 304 12.8
2014-Apr-23 22:15 304 12.8
2014-Apr-23 22:10 304 13.3
2014-Apr-23 22:05 304 13.3
2014-Apr-23 22:00 304 13.3
2014-Apr-23 21:55 304 13.3
2014-Apr-23 21:50 304 13.3
2014-Apr-23 21:45 304 13.3
2014-Apr-23 21:40 304 13.3
2014-Apr-23 21:35 304 0 gusting 2 13.3
2014-Apr-23 21:30 304 13.3
2014-Apr-23 21:25 304 13.3
2014-Apr-23 21:20 304 13.3
2014-Apr-23 21:15 304 0 gusting 1 13.3
2014-Apr-23 21:10 304 13.3
2014-Apr-23 21:05 304 0 gusting 4 13.3
2014-Apr-23 21:00 296 1 gusting 4 13.3
2014-Apr-23 20:55 297 1 gusting 5 13.3
2014-Apr-23 20:50 297 2 gusting 5 13.3
2014-Apr-23 20:45 294 0 gusting 4 13.3
2014-Apr-23 20:40 274 1 gusting 3 12.8
2014-Apr-23 20:35 290 1 gusting 4 12.8
2014-Apr-23 20:30 291 1 gusting 4 13.3
2014-Apr-23 20:25 309 1 gusting 3 13.3
2014-Apr-23 20:20 318 13.3
2014-Apr-23 20:15 322 13.3
2014-Apr-23 20:10 322 13.3
2014-Apr-23 20:05 322 13.3
2014-Apr-23 20:00 322 13.3
2014-Apr-23 19:55 322 13.9
2014-Apr-23 19:50 322 13.9
2014-Apr-23 19:45 323 1 gusting 4 13.9
2014-Apr-23 19:40 316 2 gusting 4 13.9
2014-Apr-23 07:50 055 12.2
2014-Apr-23 07:45 055 12.2
2014-Apr-23 07:40 065 12.2
2014-Apr-23 07:35 064 12.2
2014-Apr-23 07:30 064 12.2
2014-Apr-23 07:25 064 11.7
2014-Apr-23 07:20 064 11.7
2014-Apr-23 07:15 064 12.2
2014-Apr-23 07:10 064 11.7
2014-Apr-23 07:05 064 11.7
2014-Apr-23 07:00 064 11.7
2014-Apr-23 06:55 064 0 gusting 2 11.7
2014-Apr-23 06:50 069 0 gusting 1 11.7
2014-Apr-22 22:10 192 8 gusting 12 14.4
2014-Apr-22 22:05 211 7 gusting 10 14.4
2014-Apr-22 22:00 360 6 gusting 10 14.4
2014-Apr-22 21:55 205 6 gusting 9 14.4
2014-Apr-22 21:50 214 6 gusting 8 14.4
2014-Apr-22 21:45 360 5 gusting 8 14.4
2014-Apr-22 21:40 206 6 gusting 10 14.4
2014-Apr-22 21:35 198 6 gusting 12 14.4
2014-Apr-22 21:30 209 7 gusting 13 14.4